Flight Track Log - Related Links

Times and Time Zones

All times are in EDT time to prevent confusion due to time zone crossing. See the UAL4596 flight status page for this flight to view local times or setup timezone preferences in your user account.

Time Position Orientation Groundspeed Altitude Reporting Facility
EDT Latitude Longitude Course Direction KTS MPH feet Rate Location/Type
Thu 09:25:48 PM 38.7611 -90.3631 87° East 152 175 1,600  Level FAA TRACON SMA TRACON (SMA)
Thu 09:26:08 PM 38.7739 -90.3706 335° Northwest 162 186 2,300 1,800 Climbing FAA TRACON SMA TRACON (SMA)
Thu 09:26:28 PM 38.7900 -90.3756 346° North 182 209 2,800 2,100 Climbing FAA TRACON SMA TRACON (SMA)
Thu 09:26:48 PM 38.8128 -90.3764 358° North 217 250 3,700 2,550 Climbing FAA TRACON SMA TRACON (SMA)
Thu 09:27:08 PM 38.8292 -90.3594 39° Northeast 248 285 4,500 2,250 Climbing FAA TRACON SMA TRACON (SMA)
Thu 09:27:28 PM 38.8358 -90.3308 73° East 273 314 5,200 2,250 Climbing FAA TRACON SMA TRACON (SMA)
Thu 09:27:48 PM 38.8331 -90.3003 97° East 285 328 6,000 2,550 Climbing FAA TRACON SMA TRACON (SMA)
Thu 09:28:08 PM 38.8289 -90.2603 98° East 292 336 6,900 2,700 Climbing FAA TRACON SMA TRACON (SMA)
Thu 09:28:28 PM 38.8267 -90.2278 95° East 299 344 7,800 2,634 Climbing FAA TRACON SMA TRACON (SMA)
Thu 09:28:49 PM 38.8253 -90.1947 93° East 301 346 8,700 3,000 Climbing FAA TRACON SMA TRACON (SMA)
Thu 09:29:00 PM 38.7609 -89.8225 87° East  Level FlightAware Approximate
Thu 09:29:08 PM 38.8228 -90.1547 95° East 294 338 9,800  Level FAA TRACON SMA TRACON (SMA)
Thu 09:29:28 PM 38.8208 -90.1219 94° East 298 343 10,300 1,317 Climbing FAA TRACON SMA TRACON (SMA)
Thu 09:29:49 PM 38.8186 -90.0869 95° East 313 360 10,700 1,200 Climbing FAA TRACON SMA TRACON (SMA)
Thu 09:30:00 PM 38.7659 -89.6863 87° East  Level FlightAware Approximate
Thu 09:30:08 PM 38.8158 -90.0406 94° East 335 386 11,100  Level FAA TRACON SMA TRACON (SMA)
Thu 09:30:28 PM 38.8136 -90.0017 94° East 353 406 11,400 900 Climbing FAA TRACON SMA TRACON (SMA)
Thu 09:30:48 PM 38.8111 -89.9608 94° East 369 425 11,700 1,171 Climbing FAA TRACON SMA TRACON (SMA)
Thu 09:31:09 PM 38.8083 -89.9072 94° East 389 448 12,200 1,350 Climbing FAA TRACON SMA TRACON (SMA)
Thu 09:31:28 PM 38.8056 -89.8633 95° East 400 460 12,600 1,385 Climbing FAA TRACON SMA TRACON (SMA)
Thu 09:31:48 PM 38.8036 -89.8189 93° East 408 470 13,100 1,610 Climbing FAA TRACON SMA TRACON (SMA)
Thu 09:32:09 PM 38.8000 -89.7622 95° East 415 478 13,700 1,500 Climbing FAA TRACON SMA TRACON (SMA)
Thu 09:32:28 PM 38.7975 -89.7167 94° East 418 481 14,100 1,385 Climbing FAA TRACON SMA TRACON (SMA)
Thu 09:32:48 PM 38.7953 -89.6703 94° East 422 486 14,600 1,610 Climbing FAA TRACON SMA TRACON (SMA)
Thu 09:33:09 PM 38.7917 -89.6125 95° East 425 489 15,200 1,650 Climbing FAA TRACON SMA TRACON (SMA)
Thu 09:33:28 PM 38.7892 -89.5658 94° East 427 491 15,700 1,538 Climbing FAA TRACON SMA TRACON (SMA)
Thu 09:33:48 PM 38.7869 -89.5192 93° East 428 493 16,200 1,350 Climbing FAA TRACON SMA TRACON (SMA)
Thu 09:34:08 PM 38.7883 -89.4717 88° East 431 496 16,600 1,463 Climbing FAA TRACON SMA TRACON (SMA)
Thu 09:34:29 PM 38.7969 -89.4128 79° East 439 505 17,200 1,650 Climbing FAA TRACON SMA TRACON (SMA)
Thu 09:34:48 PM 38.8031 -89.3661 80° East 436 502 17,700 1,692 Climbing FAA TRACON SMA TRACON (SMA)
Thu 09:35:08 PM 38.8083 -89.3189 82° East 433 498 18,300 1,773 Climbing FAA TRACON SMA TRACON (SMA)
Thu 09:35:32 PM 38.8183 -89.2483 80° East 434 499 19,000 1,674 Climbing FAA TRACON SMA TRACON (SMA)
Thu 09:35:51 PM 38.8256 -89.2014 79° East 433 498 19,500 1,500 Climbing FAA TRACON SMA TRACON (SMA)
Thu 09:36:08 PM 38.8294 -89.1658 82° East 436 502 19,900 1,421 Climbing FAA TRACON SMA TRACON (SMA)
Thu 09:36:29 PM 38.8383 -89.1072 79° East 436 502 20,400 1,350 Climbing FAA TRACON SMA TRACON (SMA)
Thu 09:36:48 PM 38.8425 -89.0714 81° East 437 503 20,800 1,448 Climbing FAA TRACON SMA TRACON (SMA)
Thu 09:37:27 PM 38.8536 -89.0269 72° East 437 503 21,800 1,515 Climbing Kansas City Center
Thu 09:38:27 PM 38.8767 -88.8736 79° East 437 503 23,300 1,475 Climbing Kansas City Center
Thu 09:39:29 PM 38.8956 -88.7208 81° East 435 501 24,800 1,463 Climbing Kansas City Center
Thu 09:40:30 PM 38.9117 -88.5758 82° East 430 495 26,300 1,463 Climbing Kansas City Center
Thu 09:41:32 PM 38.9372 -88.4264 78° East 422 486 27,800 1,514 Climbing Kansas City Center
Thu 09:42:17 PM 38.9692 -88.3097 71° East 435 501 29,000 1,528 Climbing Indianapolis Center
Thu 09:43:18 PM 39.0103 -88.1617 70° East 435 501 30,500 1,328 Climbing Indianapolis Center
Thu 09:44:19 PM 39.0519 -88.0131 70° East 438 504 31,700 1,082 Climbing Indianapolis Center
Thu 09:45:20 PM 39.0928 -87.8619 71° East 441 507 32,700 984 Climbing Indianapolis Center
Thu 09:46:21 PM 39.1361 -87.7069 70° East 450 518 33,700 1,033 Climbing Indianapolis Center
Thu 09:47:22 PM 39.1786 -87.5500 71° East 457 526 34,800 639 Climbing Indianapolis Center
Thu 09:48:23 PM 39.2222 -87.3919 70° East 463 533 35,000 98 Climbing Indianapolis Center
Thu 09:49:25 PM 39.2772 -87.1875 71° East 496 571 35,000  Level Indianapolis Center
Thu 09:50:26 PM 39.3239 -87.0103 71° East 513 590 35,000  Level Indianapolis Center
Thu 09:51:27 PM 39.3700 -86.8356 71° East 512 589 35,000  Level Indianapolis Center
Thu 09:52:28 PM 39.4164 -86.6617 71° East 510 587 35,000  Level Indianapolis Center
Thu 09:53:29 PM 39.4614 -86.4900 71° East 502 578 35,000  Level Indianapolis Center
Thu 09:54:30 PM 39.5056 -86.3172 72° East 501 577 35,000  Level Indianapolis Center
Thu 09:55:32 PM 39.5494 -86.1447 72° East 500 575 35,000  Level Indianapolis Center
Thu 09:56:33 PM 39.5933 -85.9775 71° East 494 568 35,000  Level Indianapolis Center
Thu 09:57:34 PM 39.6386 -85.8083 71° East 493 567 35,000  Level Indianapolis Center
Thu 09:58:35 PM 39.7008 -85.6436 64° Northeast 496 571 35,000  Level Indianapolis Center
Thu 09:59:36 PM 39.7611 -85.4825 64° Northeast 492 566 35,000  Level Indianapolis Center
Thu 10:00:38 PM 39.8214 -85.3203 64° Northeast 494 568 35,000  Level Indianapolis Center
Thu 10:01:39 PM 39.8817 -85.1597 64° Northeast 491 565 35,000  Level Indianapolis Center
Thu 10:02:40 PM 39.9422 -84.9972 64° Northeast 493 567 35,000  Level Indianapolis Center
Thu 10:03:41 PM 40.0011 -84.8353 65° Northeast 491 565 35,000  Level Indianapolis Center
Thu 10:04:42 PM 40.0617 -84.6733 64° Northeast 491 565 35,000  Level Indianapolis Center
Thu 10:05:43 PM 40.1200 -84.5117 65° Northeast 489 563 35,000 -49 Level Indianapolis Center
Thu 10:06:45 PM 40.1781 -84.3503 65° Northeast 485 558 34,900 -49 Descending Indianapolis Center
Thu 10:07:46 PM 40.2364 -84.1897 65° Northeast 484 557 34,900 49 Level Indianapolis Center
Thu 10:08:47 PM 40.2961 -84.0306 64° Northeast 481 554 35,000  Climbing Indianapolis Center
Thu 10:09:48 PM 40.3653 -83.8792 59° Northeast 478 550 34,900  Descending Indianapolis Center
Thu 10:10:49 PM 40.4339 -83.7281 59° Northeast 476 548 35,000 49 Climbing Indianapolis Center
Thu 10:11:50 PM 40.5022 -83.5775 59° Northeast 474 545 35,000  Level Indianapolis Center
Thu 10:12:51 PM 40.5711 -83.4272 59° Northeast 474 545 35,000  Level Indianapolis Center
Thu 10:13:52 PM 40.6389 -83.2769 59° Northeast 472 543 35,000  Level Indianapolis Center
Thu 10:14:14 PM 40.6750 -83.2003 58° Northeast 470 541 35,000  Level Cleveland Center
Thu 10:15:14 PM 40.7408 -83.0522 60° Northeast 470 541 35,000  Level Cleveland Center
Thu 10:16:14 PM 40.8000 -82.9172 60° Northeast 465 535 35,000  Level Cleveland Center
Thu 10:17:14 PM 40.8617 -82.7494 64° Northeast 465 535 35,000  Level Cleveland Center
Thu 10:18:14 PM 40.8981 -82.5883 73° East 460 529 35,000  Level Cleveland Center
Thu 10:19:14 PM 40.9403 -82.4247 71° East 460 529 35,000  Level Cleveland Center
Thu 10:20:14 PM 40.9783 -82.2636 73° East 455 524 35,000  Level Cleveland Center
Thu 10:21:14 PM 41.0181 -82.0967 72° East 461 531 35,000  Level Cleveland Center
Thu 10:22:14 PM 41.0556 -81.9325 73° East 461 531 35,000  Level Cleveland Center
Thu 10:23:14 PM 41.0928 -81.7706 73° East 455 524 35,000  Level Cleveland Center
Thu 10:24:14 PM 41.1319 -81.6225 71° East 462 532 35,000  Level Cleveland Center
Thu 10:25:14 PM 41.1686 -81.4603 73° East 462 532 35,000  Level Cleveland Center
Thu 10:26:14 PM 41.2075 -81.2758 74° East 462 532 35,000  Level Cleveland Center
Thu 10:27:14 PM 41.2458 -81.1106 73° East 457 526 35,000  Level Cleveland Center
Thu 10:28:14 PM 41.2819 -80.9478 74° East 457 526 35,000  Level Cleveland Center
Thu 10:29:14 PM 41.3197 -80.7822 73° East 457 526 35,000  Level Cleveland Center
Thu 10:30:14 PM 41.3556 -80.6192 74° East 457 526 35,000  Level Cleveland Center
Thu 10:31:14 PM 41.3908 -80.4558 74° East 457 526 35,000  Level Cleveland Center
Thu 10:32:14 PM 41.4261 -80.3061 73° East 457 526 35,000  Level Cleveland Center
Thu 10:33:14 PM 41.4589 -80.1397 75° East 457 526 35,000  Level Cleveland Center
Thu 10:34:14 PM 41.4997 -79.9594 73° East 457 526 35,000  Level Cleveland Center
Thu 10:35:14 PM 41.5361 -79.7869 74° East 457 526 35,000  Level Cleveland Center
Thu 10:36:14 PM 41.5725 -79.6172 74° East 462 532 35,000  Level Cleveland Center
Thu 10:37:14 PM 41.6083 -79.4444 74° East 467 537 35,000  Level Cleveland Center
Thu 10:38:14 PM 41.6419 -79.2717 75° East 472 543 35,000  Level Cleveland Center
Thu 10:39:14 PM 41.6336 -79.0942 94° East 472 543 35,000  Level Cleveland Center
Thu 10:40:14 PM 41.6144 -78.9167 98° East 472 543 35,000  Level Cleveland Center
Thu 10:41:14 PM 41.5972 -78.7422 97° East 477 549 35,000  Level Cleveland Center
Thu 10:42:14 PM 41.5775 -78.5678 99° East 477 549 35,000  Level Cleveland Center
Thu 10:43:14 PM 41.5575 -78.3908 99° East 477 549 35,000  Level Cleveland Center
Thu 10:44:10 PM 41.5442 -78.2522 97° East 476 548 35,000  Level New York Center
Thu 10:45:11 PM 41.5256 -78.0811 98° East 475 547 35,000  Level New York Center
Thu 10:46:11 PM 41.5067 -77.9128 98° East 467 537 35,000  Level New York Center
Thu 10:47:10 PM 41.4792 -77.7436 102° East 461 531 35,000  Level New York Center
Thu 10:48:12 PM 41.4572 -77.5808 100° East 455 524 35,000 -541 Level New York Center
Thu 10:49:12 PM 41.4367 -77.4319 100° East 455 524 33,900 -1,525 Descending New York Center
Thu 10:50:10 PM 41.4058 -77.2353 102° East 455 524 32,000 -1,815 Descending New York Center
Thu 10:51:11 PM 41.3817 -77.0642 101° East 455 524 30,300 -1,736 Descending New York Center
Thu 10:52:11 PM 41.3553 -76.8903 101° East 460 529 28,500 -1,815 Descending New York Center
Thu 10:53:10 PM 41.3242 -76.7244 104° East 465 535 26,700 -1,966 Descending New York Center
Thu 10:54:10 PM 41.2889 -76.5969 110° East 460 529 24,600 -2,607 Descending New York Center
Thu 10:55:12 PM 41.2428 -76.4303 110° East 450 518 21,400 -2,924 Descending New York Center
Thu 10:56:09 PM 41.2006 -76.2667 109° East 433 498 18,800 -2,237 Descending New York Center
Thu 10:57:10 PM 41.1669 -76.1372 109° East 421 484 17,000 -1,820 Descending New York Center
Thu 10:58:11 PM 41.1275 -75.9908 110° East 421 484 15,100 -2,000 Descending New York Center
Thu 10:59:10 PM 41.0861 -75.8417 110° East 410 472 13,000 -1,109 Descending New York Center
Thu 11:00:10 PM 41.0481 -75.7042 110° East 393 452 12,900 -50 Descending New York Center
Thu 11:01:11 PM 41.0136 -75.5806 110° East 398 458 12,900 -492 Level New York Center
Thu 11:02:12 PM 40.9717 -75.4319 110° East 398 458 11,900 -1,109 Descending New York Center
Thu 11:03:10 PM 40.9428 -75.3200 109° East 377 434 10,700 -1,119 Descending New York Center
Thu 11:04:10 PM 40.9114 -75.2136 111° Southeast 334 384 9,700 -1,412 Descending New York Center
Thu 11:05:09 PM 40.8800 -75.1047 111° Southeast 297 342 7,900 -1,350 Descending New York Center
Thu 11:06:10 PM 40.8525 -75.0042 110° East 292 336 7,000 -446 Descending New York Center
Thu 11:07:10 PM 40.8244 -74.9092 111° Southeast 286 329 7,000  Level New York Center
Thu 11:08:10 PM 40.7903 -74.8111 115° Southeast 288 331 7,000 -197 Level New York Center
Thu 11:09:12 PM 40.7700 -74.7333 109° East 265 305 6,600 -500 Descending New York Center
Thu 11:10:10 PM 40.7817 -74.6406 81° East 231 266 6,000 -493 Descending New York Center
Thu 11:10:25 PM 40.8000 -74.6167 45° Northeast 269 310 6,000  Level New York TRACON
Thu 11:11:25 PM 40.8500 -74.5833 27° Northeast 277 319 6,000  Level New York TRACON
Thu 11:12:25 PM 40.9333 -74.5667 North 269 310 6,000  Level New York TRACON
Thu 11:13:12 PM 40.9817 -74.5725 355° North 265 305 6,000  Level New York Center
Thu 11:14:12 PM 41.0633 -74.5633 North 265 305 6,000  Level New York Center
Thu 11:15:10 PM 41.1289 -74.5283 22° Northeast 275 316 6,000  Level New York Center
Thu 11:15:25 PM 41.1333 -74.5167 63° Northeast 280 322 6,000  Level New York TRACON
Thu 11:16:25 PM 41.1500 -74.4333 75° East 231 266 6,000 -350 Level New York TRACON
Thu 11:17:25 PM 41.1500 -74.3500 90° East 199 229 5,300 -900 Descending New York TRACON
Thu 11:18:25 PM 41.1167 -74.3000 131° Southeast 191 220 4,200 -650 Descending New York TRACON
Thu 11:19:25 PM 41.1000 -74.2333 108° East 182 209 4,000 -100 Descending New York TRACON
Thu 11:20:25 PM 41.0833 -74.1667 108° East 186 214 4,000  Level New York TRACON
Thu 11:21:25 PM 41.0500 -74.1333 143° Southeast 159 183 4,000 -350 Level New York TRACON
Thu 11:22:25 PM 41.0000 -74.1167 166° South 167 192 3,300 -500 Descending New York TRACON
Thu 11:23:25 PM 40.9667 -74.1000 159° South 156 180 3,000 -143 Descending New York TRACON
Thu 11:24:31 PM 40.9167 -74.1000 180° South 152 175 3,000 -238 Level New York TRACON
Thu 11:25:31 PM 40.8667 -74.1000 180° South 149 171 2,500 -250 Descending New York TRACON
Thu 11:26:31 PM 40.8333 -74.0833 159° South 144 166 2,500  Level New York TRACON

Login

Don't have an account? Register now (free) for customized features, flight alerts, and more!